Terminal Aerodrome Forecast
Issued by NWS

Home | Current Version | Previous Version | Text Only | Print | Product List | Glossary On
Versions: 1 2 3 4 5 6 7 8 9 10 11 12 13 14 15 16 17 18 19 20
000
FTUS41 KCAR 252323
TAFFVE
TAF
KFVE 252323Z 2600/2624 15012KT 1/4SM FG VV002 WS020/17045KT
     FM260400 16010KT 1/2SM -SHRA FG OVC003 WS020/17045KT
     FM260600 16010G18KT 2SM -SHRA BR OVC005
     FM261000 24010KT 1SM -SHSN OVC010
     FM261300 27012G20KT P6SM OVC025
     FM261600 28018G28KT P6SM BKN030=

USA.gov is the U.S. government's official web portal to all federal, state and local government web resources and services.